Time;durP1;ratioP1;P1;durP2;ratioP2;P2;SDS_P1;SDS_P2;PMS_P1;PMS_P2;Temp;Humidity;BMP_temperature;BMP_pressure;BME280_temperature;BME280_humidity;BME280_pressure;Samples;Min_cycle;Max_cycle;Signal;HPM_P1;HPM_P2
2023/01/03 00:01:39;;;;;;;1.37;0.93;;;;;;;8.72;100.00;99243.06;5052541;28;20242;-76
2023/01/03 00:04:05;;;;;;;1.17;1.07;;;;;;;8.78;100.00;99247.22;5052612;28;20227;-76
2023/01/03 00:06:33;;;;;;;1.27;1.17;;;;;;;8.77;100.00;99245.50;5051908;28;20228;-76
2023/01/03 00:09:01;;;;;;;1.40;1.30;;;;;;;8.73;100.00;99249.19;5051631;28;20222;-76
2023/01/03 00:14:17;;;;;;;1.67;1.20;;;;;;;8.73;100.00;99257.09;5052452;28;20202;-76
2023/01/03 00:16:44;;;;;;;1.80;1.20;;;;;;;8.75;100.00;99269.28;5051796;28;20236;-77
2023/01/03 00:19:14;;;;;;;1.30;1.00;;;;;;;8.79;100.00;99273.50;5051140;28;20211;-75
2023/01/03 00:21:42;;;;;;;1.70;0.97;;;;;;;8.78;100.00;99273.56;5051989;28;20679;-76
2023/01/03 00:24:09;;;;;;;1.30;1.10;;;;;;;8.77;100.00;99269.22;5051687;28;20227;-75
2023/01/03 00:26:39;;;;;;;1.20;1.10;;;;;;;8.74;100.00;99279.88;5051692;28;20229;-76
2023/01/03 00:29:05;;;;;;;0.87;0.87;;;;;;;8.77;100.00;99271.88;5050878;28;20208;-75
2023/01/03 00:31:32;;;;;;;1.20;1.10;;;;;;;8.79;100.00;99262.97;5051998;28;20213;-75
2023/01/03 00:33:58;;;;;;;1.67;1.40;;;;;;;8.74;100.00;99271.97;5051992;28;20211;-75
2023/01/03 00:36:25;;;;;;;1.77;1.00;;;;;;;8.72;100.00;99271.19;5051489;28;20239;-75
2023/01/03 00:38:51;;;;;;;1.20;1.10;;;;;;;8.68;100.00;99269.59;5051093;28;20212;-75
2023/01/03 00:41:19;;;;;;;1.37;1.10;;;;;;;8.65;100.00;99277.66;5051060;28;20219;-75
2023/01/03 00:43:48;;;;;;;1.37;1.03;;;;;;;8.70;100.00;99273.06;5051694;28;20220;-75
2023/01/03 00:46:16;;;;;;;5.07;1.30;;;;;;;8.68;100.00;99282.78;5051979;28;20224;-76
2023/01/03 00:48:43;;;;;;;1.53;0.90;;;;;;;8.68;100.00;99277.53;5051651;28;20212;-75
2023/01/03 00:51:11;;;;;;;1.00;0.90;;;;;;;8.64;100.00;99279.44;5051559;28;20201;-75
2023/01/03 00:53:39;;;;;;;1.20;1.00;;;;;;;8.63;100.00;99284.78;5051667;28;20223;-76
2023/01/03 00:56:08;;;;;;;1.00;0.90;;;;;;;8.58;100.00;99286.75;5051441;28;20243;-75
2023/01/03 00:58:35;;;;;;;1.10;1.00;;;;;;;8.54;100.00;99280.78;5051453;28;20220;-75
2023/01/03 01:01:06;;;;;;;1.10;1.00;;;;;;;8.54;100.00;99282.53;5050854;28;20212;-75
2023/01/03 01:03:33;;;;;;;1.20;1.10;;;;;;;8.53;100.00;99280.81;5051708;28;20212;-75
2023/01/03 01:06:00;;;;;;;1.00;0.90;;;;;;;8.53;100.00;99283.47;5051519;28;20234;-75
2023/01/03 01:08:26;;;;;;;1.00;0.90;;;;;;;8.52;100.00;99282.59;5051311;28;20241;-75
2023/01/03 01:11:01;;;;;;;2.57;1.30;;;;;;;8.54;100.00;99279.91;5050785;28;20214;-75
2023/01/03 01:13:28;;;;;;;1.03;0.93;;;;;;;8.56;100.00;99267.53;5051427;28;20626;-75
2023/01/03 01:15:55;;;;;;;0.80;0.80;;;;;;;8.58;100.00;99260.41;5051548;28;20204;-75
2023/01/03 01:18:23;;;;;;;1.77;0.90;;;;;;;8.58;99.66;99244.59;5051411;28;20205;-75
2023/01/03 01:20:49;;;;;;;2.63;0.90;;;;;;;8.58;99.11;99249.88;5050700;28;20209;-76
2023/01/03 01:23:16;;;;;;;0.93;0.77;;;;;;;8.55;99.47;99265.81;5051395;28;20214;-75
2023/01/03 01:25:42;;;;;;;1.90;1.10;;;;;;;8.59;99.10;99270.03;5051417;28;20219;-75
2023/01/03 01:28:09;;;;;;;1.77;0.90;;;;;;;8.57;98.99;99277.16;5051749;28;20281;-75
2023/01/03 01:30:37;;;;;;;1.23;0.80;;;;;;;8.56;98.83;99275.44;5050420;28;20216;-75
2023/01/03 01:33:04;;;;;;;2.10;0.90;;;;;;;8.50;99.32;99273.91;5051367;28;20216;-76
2023/01/03 01:35:32;;;;;;;1.27;0.97;;;;;;;8.53;99.10;99278.19;5051216;28;20218;-76
2023/01/03 01:37:58;;;;;;;1.10;1.00;;;;;;;8.51;98.68;99282.69;5051088;28;20248;-75
2023/01/03 01:40:25;;;;;;;0.80;0.80;;;;;;;8.50;98.90;99288.88;5050432;28;20584;-75
2023/01/03 01:45:36;;;;;;;1.60;0.70;;;;;;;8.41;99.24;99276.09;5051285;28;20248;-76
2023/01/03 01:48:08;;;;;;;1.33;0.90;;;;;;;8.40;99.44;99282.28;5049968;28;20594;-76
2023/01/03 01:50:40;;;;;;;1.30;0.90;;;;;;;8.37;100.00;99283.25;5048218;28;20215;-76
2023/01/03 01:53:10;;;;;;;0.73;0.70;;;;;;;8.39;99.67;99285.84;5050656;28;20591;-76
2023/01/03 01:55:40;;;;;;;1.10;0.80;;;;;;;8.39;100.00;99296.38;5053975;28;20215;-76
2023/01/03 01:58:08;;;;;;;1.10;0.80;;;;;;;8.35;99.86;99300.03;5059890;28;20230;-76
2023/01/03 02:00:36;;;;;;;0.87;0.80;;;;;;;8.37;99.88;99316.63;5072161;28;20298;-76
2023/01/03 02:03:03;;;;;;;3.07;1.57;;;;;;;8.37;100.00;99303.47;5073840;28;20237;-76
2023/01/03 02:05:31;;;;;;;1.73;1.10;;;;;;;8.33;100.00;99305.38;5072814;28;20204;-77
2023/01/03 02:08:00;;;;;;;2.70;1.00;;;;;;;8.43;99.99;99303.22;5073019;28;20242;-77
2023/01/03 02:10:54;;;;;;;0.90;0.80;;;;;;;8.43;99.48;99295.31;5073128;28;20229;-77
2023/01/03 02:13:28;;;;;;;1.20;0.80;;;;;;;8.43;99.32;99290.03;5073050;28;20228;-77
2023/01/03 02:16:14;;;;;;;1.10;0.90;;;;;;;8.41;99.38;99291.88;5073938;28;20234;-77
2023/01/03 02:18:51;;;;;;;1.37;0.90;;;;;;;8.35;99.90;99303.56;5072639;28;20210;-77
2023/01/03 02:22:02;;;;;;;3.37;0.80;;;;;;;8.37;99.47;99311.38;5073798;28;20236;-77
2023/01/03 02:24:54;;;;;;;1.70;1.03;;;;;;;8.36;99.86;99310.53;4972574;28;20221;-77
2023/01/03 02:27:47;;;;;;;2.00;0.80;;;;;;;8.34;99.80;99312.34;5072738;28;20246;-77
2023/01/03 02:30:32;;;;;;;1.30;1.00;;;;;;;8.32;99.89;99310.72;5071946;28;20663;-77
2023/01/03 02:33:07;;;;;;;1.37;0.90;;;;;;;8.23;100.00;99311.09;5073497;28;20249;-77
2023/01/03 02:35:39;;;;;;;3.80;1.00;;;;;;;8.20;100.00;99303.34;5072633;28;20214;-77
2023/01/03 02:38:16;;;;;;;1.20;1.10;;;;;;;8.11;100.00;99306.28;5072709;28;20237;-77
2023/01/03 02:40:49;;;;;;;1.97;1.00;;;;;;;8.09;100.00;99308.13;5071907;28;20210;-77
2023/01/03 02:43:21;;;;;;;1.13;0.80;;;;;;;8.05;100.00;99303.91;5072712;28;20210;-76
2023/01/03 02:46:04;;;;;;;0.80;0.80;;;;;;;8.01;100.00;99307.56;5073823;28;20540;-76
2023/01/03 02:48:41;;;;;;;1.00;0.90;;;;;;;7.95;100.00;99299.94;5073956;28;20641;-76
2023/01/03 02:51:12;;;;;;;1.10;1.00;;;;;;;7.89;100.00;99308.09;5072662;28;20210;-76
2023/01/03 02:53:43;;;;;;;0.97;0.97;;;;;;;7.84;100.00;99307.41;5073686;28;20237;-76
2023/01/03 02:56:13;;;;;;;1.40;1.00;;;;;;;7.77;100.00;99316.47;5073471;28;20226;-75
2023/01/03 02:58:44;;;;;;;1.00;0.90;;;;;;;7.71;100.00;99314.09;5073476;28;20216;-76
2023/01/03 03:01:15;;;;;;;0.97;0.90;;;;;;;7.68;100.00;99314.19;5073378;28;20215;-76
2023/01/03 03:03:41;;;;;;;0.93;0.83;;;;;;;7.63;100.00;99316.13;5073609;28;20222;-76
2023/01/03 03:06:14;;;;;;;1.03;0.90;;;;;;;7.57;100.00;99319.00;5073008;28;20582;-76
2023/01/03 03:08:44;;;;;;;1.43;1.00;;;;;;;7.51;100.00;99319.25;5073221;28;20219;-75
2023/01/03 03:14:00;;;;;;;1.70;0.90;;;;;;;7.39;100.00;99325.84;5073653;28;20229;-75
2023/01/03 03:16:49;;;;;;;1.00;0.90;;;;;;;7.40;100.00;99316.16;5072597;28;20226;-75
2023/01/03 03:25:17;;;;;;;0.90;0.90;;;;;;;7.48;100.00;99308.84;5073286;28;20213;-76
2023/01/03 03:30:36;;;;;;;1.23;1.10;;;;;;;7.48;100.00;99304.44;5072691;28;20207;-76
2023/01/03 03:33:07;;;;;;;1.20;1.10;;;;;;;7.50;100.00;99296.47;5073982;28;20229;-76
2023/01/03 03:35:39;;;;;;;1.43;1.13;;;;;;;7.53;100.00;99299.00;5073321;28;20587;-76
2023/01/03 03:38:08;;;;;;;1.50;1.10;;;;;;;7.47;100.00;99296.63;5073100;28;20337;-76
2023/01/03 03:46:20;;;;;;;1.40;1.27;;;;;;;7.45;100.00;99298.44;5072806;28;20305;-76
2023/01/03 03:51:56;;;;;;;2.00;1.50;;;;;;;7.34;100.00;99300.63;4971175;28;20689;-76
2023/01/03 03:54:24;;;;;;;1.97;1.33;;;;;;;7.29;100.00;99307.84;5019166;28;20210;-76
2023/01/03 03:56:55;;;;;;;2.17;1.50;;;;;;;7.22;100.00;99311.59;5072860;28;20583;-76
2023/01/03 03:59:24;;;;;;;1.67;1.47;;;;;;;7.21;100.00;99314.28;5071998;28;20210;-76
2023/01/03 04:01:52;;;;;;;2.20;1.50;;;;;;;7.19;100.00;99316.97;5072402;28;20220;-76
2023/01/03 04:04:24;;;;;;;1.43;1.33;;;;;;;7.18;100.00;99320.50;5072340;28;20218;-76
2023/01/03 04:06:52;;;;;;;2.07;1.63;;;;;;;7.11;100.00;99319.03;5072538;28;20231;-77
2023/01/03 04:09:19;;;;;;;1.50;1.40;;;;;;;7.09;100.00;99330.50;5072170;28;20560;-76
2023/01/03 04:11:46;;;;;;;2.60;2.13;;;;;;;7.03;100.00;99331.56;5072651;28;20224;-76
2023/01/03 04:14:12;;;;;;;1.43;1.33;;;;;;;7.03;100.00;99328.09;5072059;28;20222;-76
2023/01/03 04:16:39;;;;;;;2.50;1.67;;;;;;;6.93;100.00;99324.94;5071681;28;20239;-76
2023/01/03 04:19:06;;;;;;;3.87;1.60;;;;;;;6.86;100.00;99327.84;5071850;28;20264;-76
2023/01/03 04:21:35;;;;;;;1.80;1.63;;;;;;;6.85;100.00;99332.22;5072821;28;20688;-76
2023/01/03 04:24:02;;;;;;;1.70;1.40;;;;;;;6.87;100.00;99324.28;5073984;28;20212;-76
2023/01/03 04:26:28;;;;;;;3.33;1.80;;;;;;;6.83;100.00;99323.56;5073498;28;20234;-77
2023/01/03 04:28:54;;;;;;;2.10;1.80;;;;;;;6.80;100.00;99331.56;5072752;28;20214;-76
2023/01/03 04:31:21;;;;;;;2.27;1.60;;;;;;;6.78;100.00;99330.72;5072876;28;20209;-76
2023/01/03 04:33:49;;;;;;;1.97;1.67;;;;;;;6.72;100.00;99324.84;5073962;28;20211;-76
2023/01/03 04:36:17;;;;;;;2.80;1.57;;;;;;;6.67;100.00;99327.66;5074559;28;20260;-76
2023/01/03 04:38:45;;;;;;;2.57;1.73;;;;;;;6.66;100.00;99336.41;5073634;28;20271;-76
2023/01/03 04:41:11;;;;;;;2.27;1.80;;;;;;;6.63;100.00;99326.03;5072065;28;20264;-77
2023/01/03 04:46:22;;;;;;;2.47;1.83;;;;;;;6.59;100.00;99329.66;5071992;28;20765;-77
2023/01/03 04:48:49;;;;;;;1.70;1.60;;;;;;;6.61;100.00;99343.63;5072092;28;20627;-76
2023/01/03 04:51:15;;;;;;;2.40;1.60;;;;;;;6.59;100.00;99345.41;5071315;28;20605;-76
2023/01/03 04:53:42;;;;;;;2.83;1.90;;;;;;;6.55;100.00;99343.81;5071324;28;20600;-76
2023/01/03 04:56:09;;;;;;;2.03;1.67;;;;;;;6.60;100.00;99347.13;5071027;28;20213;-76
2023/01/03 04:58:36;;;;;;;2.13;1.90;;;;;;;6.60;100.00;99347.13;5071322;28;20238;-76
2023/01/03 05:01:04;;;;;;;4.00;1.73;;;;;;;6.59;100.00;99342.78;5070403;28;20211;-76
2023/01/03 05:03:31;;;;;;;1.80;1.70;;;;;;;6.52;100.00;99341.28;5071379;28;20208;-76
2023/01/03 05:05:59;;;;;;;3.60;1.80;;;;;;;6.48;100.00;99342.28;5071143;28;20208;-76
2023/01/03 05:08:25;;;;;;;1.93;1.67;;;;;;;6.52;100.00;99341.28;5070740;28;20290;-76
2023/01/03 05:10:52;;;;;;;2.57;1.73;;;;;;;6.52;100.00;99341.28;5070207;28;20221;-76
2023/01/03 05:13:20;;;;;;;3.37;1.90;;;;;;;6.60;100.00;99331.38;5070926;28;20670;-76
2023/01/03 05:15:47;;;;;;;4.00;1.80;;;;;;;6.60;100.00;99328.75;5071255;28;20206;-76
2023/01/03 05:18:13;;;;;;;2.57;2.20;;;;;;;6.61;100.00;99325.22;5070741;28;20233;-76
2023/01/03 05:26:21;;;;;;;2.70;1.80;;;;;;;6.63;100.00;99319.91;5061284;28;20232;-76
2023/01/03 05:28:52;;;;;;;2.23;2.00;;;;;;;6.64;100.00;99327.75;5073544;28;20209;-76
2023/01/03 05:31:18;;;;;;;2.43;1.93;;;;;;;6.62;100.00;99319.06;5074813;28;20220;-76
2023/01/03 05:33:45;;;;;;;2.77;1.97;;;;;;;6.56;100.00;99324.53;5075059;28;20206;-76
2023/01/03 05:36:11;;;;;;;3.17;1.97;;;;;;;6.54;100.00;99336.00;5074839;28;20209;-76
2023/01/03 05:38:38;;;;;;;3.77;2.03;;;;;;;6.49;100.00;99330.91;5074436;28;20602;-76
2023/01/03 05:41:05;;;;;;;2.10;1.90;;;;;;;6.47;100.00;99345.84;5074187;28;20216;-76
2023/01/03 05:43:32;;;;;;;2.83;2.00;;;;;;;6.51;100.00;99349.22;5074461;28;20223;-76
2023/01/03 05:45:59;;;;;;;2.13;1.70;;;;;;;6.52;100.00;99346.53;5074355;28;20215;-76
2023/01/03 05:48:26;;;;;;;2.33;1.77;;;;;;;6.49;100.00;99351.91;5074012;28;20202;-80
2023/01/03 05:50:53;;;;;;;2.70;1.90;;;;;;;6.51;100.00;99357.97;5073481;28;20257;-76
2023/01/03 05:53:20;;;;;;;2.40;1.70;;;;;;;6.47;100.00;99360.75;5073881;28;20259;-76
2023/01/03 05:55:46;;;;;;;2.47;1.80;;;;;;;6.46;100.00;99365.13;5074122;28;20220;-76
2023/01/03 05:58:13;;;;;;;1.90;1.70;;;;;;;6.40;100.00;99370.59;5073783;28;20236;-76
2023/01/03 06:00:39;;;;;;;2.43;1.87;;;;;;;6.41;100.00;99374.09;5073107;28;20205;-76
2023/01/03 06:03:07;;;;;;;2.43;1.70;;;;;;;6.35;100.00;99372.50;5074257;28;20207;-76
2023/01/03 06:05:33;;;;;;;2.70;1.70;;;;;;;6.32;100.00;99372.63;5073978;28;20215;-76
2023/01/03 06:08:01;;;;;;;2.53;2.10;;;;;;;6.24;100.00;99363.28;5074981;22;20622;-76
2023/01/03 06:10:27;;;;;;;1.70;1.60;;;;;;;6.17;100.00;99377.50;5053010;28;20646;-75
2023/01/03 06:12:54;;;;;;;2.60;2.17;;;;;;;6.04;100.00;99373.56;5053573;28;20209;-75
2023/01/03 06:15:20;;;;;;;2.80;2.40;;;;;;;5.96;100.00;99375.53;5053597;28;20212;-74
2023/01/03 06:17:56;;;;;;;2.40;2.00;;;;;;;5.86;100.00;99379.38;5053565;28;20241;-76
2023/01/03 06:20:25;;;;;;;3.43;2.40;;;;;;;5.74;100.00;99388.41;5052891;28;20217;-76
2023/01/03 06:22:53;;;;;;;2.97;2.40;;;;;;;5.65;100.00;99390.47;5053571;28;20237;-75
2023/01/03 06:25:20;;;;;;;3.27;2.17;;;;;;;5.58;100.00;99387.19;5053600;28;20737;-76
2023/01/03 06:27:47;;;;;;;2.27;2.07;;;;;;;5.53;100.00;99385.56;5053594;28;20224;-75
2023/01/03 06:30:14;;;;;;;2.90;2.53;;;;;;;5.45;100.00;99391.03;5052691;28;20220;-77
2023/01/03 06:32:41;;;;;;;3.53;3.00;;;;;;;5.42;100.00;99396.38;5053353;28;20212;-76
2023/01/03 06:35:08;;;;;;;3.27;2.93;;;;;;;5.44;100.00;99398.97;5053307;28;20204;-77
2023/01/03 06:37:36;;;;;;;2.67;2.07;;;;;;;5.37;100.00;99393.03;5053054;28;20233;-76
2023/01/03 06:40:03;;;;;;;2.93;2.63;;;;;;;5.36;100.00;99391.31;5051792;28;20215;-77
2023/01/03 06:42:44;;;;;;;3.70;2.97;;;;;;;5.37;100.00;99395.66;5053154;28;20227;-75
2023/01/03 06:53:41;;;;;;;3.80;2.90;;;;;;;5.39;100.00;99412.22;5010785;28;20300;-76
2023/01/03 06:56:09;;;;;;;2.80;2.50;;;;;;;5.44;100.00;99410.28;5043265;28;20698;-77
2023/01/03 06:58:36;;;;;;;4.23;2.30;;;;;;;5.45;100.00;99412.00;5052512;28;20232;-77
2023/01/03 07:01:04;;;;;;;3.50;2.10;;;;;;;5.42;100.00;99414.75;5052046;28;20223;-76
2023/01/03 07:03:31;;;;;;;3.33;2.30;;;;;;;5.46;100.00;99413.75;5052648;28;20210;-77
2023/01/03 07:05:57;;;;;;;2.60;1.90;;;;;;;5.44;100.00;99423.41;5052723;28;20217;-76
2023/01/03 07:08:24;;;;;;;2.20;2.00;;;;;;;5.38;100.00;99420.13;5052322;28;20236;-76
2023/01/03 07:10:52;;;;;;;2.27;2.07;;;;;;;5.30;100.00;99428.19;5051806;28;20619;-76
2023/01/03 07:16:02;;;;;;;3.63;2.60;;;;;;;5.22;100.00;99419.69;5052726;28;20227;-76
2023/01/03 07:18:28;;;;;;;3.97;2.70;;;;;;;5.16;100.00;99419.84;5052208;28;20245;-77
2023/01/03 07:20:55;;;;;;;3.47;2.50;;;;;;;5.11;100.00;99426.09;5051757;28;20219;-77
2023/01/03 07:23:22;;;;;;;2.90;2.60;;;;;;;5.11;100.00;99429.59;5052459;28;20212;-77
2023/01/03 07:25:48;;;;;;;3.27;2.87;;;;;;;5.17;100.00;99434.66;5052211;28;20679;-77
2023/01/03 07:28:16;;;;;;;3.70;3.03;;;;;;;5.24;100.00;99432.72;5052317;28;20241;-76
2023/01/03 07:30:45;;;;;;;3.77;3.20;;;;;;;5.25;100.00;99430.06;5051515;28;20211;-77
2023/01/03 07:33:13;;;;;;;4.17;3.17;;;;;;;5.15;100.00;99428.63;5052084;28;20220;-77
2023/01/03 07:35:40;;;;;;;5.17;3.03;;;;;;;5.13;100.00;99435.66;5052019;28;20204;-77
2023/01/03 07:38:08;;;;;;;2.97;2.73;;;;;;;5.10;100.00;99443.59;5051948;28;20609;-76
2023/01/03 07:40:34;;;;;;;3.70;3.30;;;;;;;5.04;100.00;99445.50;5051403;28;20204;-76
2023/01/03 07:45:46;;;;;;;3.43;2.77;;;;;;;5.07;100.00;99446.28;5052145;28;20234;-75
2023/01/03 07:48:14;;;;;;;3.40;3.10;;;;;;;5.15;100.00;99449.59;5051850;28;20228;-75
2023/01/03 07:50:41;;;;;;;3.70;3.30;;;;;;;5.26;100.00;99447.50;5049942;28;20223;-74
2023/01/03 07:53:08;;;;;;;3.70;3.30;;;;;;;5.24;100.00;99449.31;5051555;28;20662;-75
2023/01/03 07:55:37;;;;;;;4.27;3.53;;;;;;;5.33;100.00;99449.09;5051679;28;20210;-75
2023/01/03 07:58:03;;;;;;;3.37;2.90;;;;;;;5.33;100.00;99449.09;5051456;28;20232;-76
2023/01/03 08:00:30;;;;;;;3.37;3.03;;;;;;;5.35;100.00;99457.75;5050829;28;20214;-75
2023/01/03 08:02:58;;;;;;;3.50;2.80;;;;;;;5.44;100.00;99454.03;5051245;28;20222;-76
2023/01/03 08:05:25;;;;;;;3.57;3.03;;;;;;;5.54;100.00;99466.84;5051416;28;20205;-74
2023/01/03 08:07:52;;;;;;;8.50;3.57;;;;;;;5.64;100.00;99465.69;5051654;28;20235;-76
2023/01/03 08:13:19;;;;;;;4.07;3.10;;;;;;;5.77;100.00;99461.78;5051256;28;20225;-75
2023/01/03 08:15:48;;;;;;;3.97;3.27;;;;;;;5.84;100.00;99462.50;5051376;28;20212;-76
2023/01/03 08:18:19;;;;;;;3.53;3.20;;;;;;;5.79;100.00;99466.97;5051360;28;20283;-75
2023/01/03 08:20:46;;;;;;;4.17;2.83;;;;;;;5.82;100.00;99470.44;5050678;28;20214;-75
2023/01/03 08:23:13;;;;;;;4.77;3.53;;;;;;;5.90;100.00;99473.69;5051521;28;20214;-75
2023/01/03 08:25:39;;;;;;;4.30;3.70;;;;;;;5.95;100.00;99470.91;5050882;28;20252;-76
2023/01/03 08:28:07;;;;;;;3.97;2.90;;;;;;;5.97;100.00;99464.72;5051082;28;20235;-76
2023/01/03 08:30:40;;;;;;;3.10;2.70;;;;;;;5.97;100.00;99456.84;5050257;28;20689;-76
2023/01/03 08:33:09;;;;;;;5.95;4.10;;;;;;;6.10;100.00;99455.56;5049117;28;20428;-76
2023/01/03 08:35:40;;;;;;;5.43;3.60;;;;;;;6.08;100.00;99460.00;5048586;28;20276;-75
2023/01/03 08:38:09;;;;;;;6.13;3.70;;;;;;;6.13;100.00;99462.50;5049447;28;20237;-75
2023/01/03 08:40:39;;;;;;;3.90;3.33;;;;;;;6.10;100.00;99455.56;5049043;28;20298;-75
2023/01/03 08:43:06;;;;;;;5.73;3.70;;;;;;;6.17;100.00;99461.50;5053952;28;20295;-76
2023/01/03 08:45:34;;;;;;;5.20;3.97;;;;;;;6.20;100.00;99470.13;5066132;28;20210;-76
2023/01/03 08:48:01;;;;;;;6.87;3.73;;;;;;;6.27;100.00;99473.41;5070296;28;20243;-76
2023/01/03 08:50:29;;;;;;;3.40;2.67;;;;;;;6.25;100.00;99476.13;5068900;28;20282;-76
2023/01/03 08:52:58;;;;;;;4.97;3.37;;;;;;;6.24;100.00;99477.00;5070003;28;20210;-76
2023/01/03 08:55:25;;;;;;;3.80;3.20;;;;;;;6.28;100.00;99485.66;5069989;28;20216;-76
2023/01/03 08:57:51;;;;;;;3.83;3.37;;;;;;;6.30;100.00;99474.19;5069226;28;20259;-76
2023/01/03 09:00:18;;;;;;;3.93;3.37;;;;;;;6.32;100.00;99488.16;5069878;28;20237;-76
2023/01/03 09:02:45;;;;;;;4.67;3.50;;;;;;;6.34;100.00;99486.31;5072736;28;20294;-76
2023/01/03 09:05:11;;;;;;;4.53;3.63;;;;;;;6.37;100.00;99485.38;5074723;28;20254;-76
2023/01/03 09:07:38;;;;;;;4.23;3.20;;;;;;;6.40;100.00;99486.13;5074467;28;20242;-76
2023/01/03 09:10:07;;;;;;;3.97;3.57;;;;;;;6.42;100.00;99489.56;5074135;28;20216;-76
2023/01/03 09:12:33;;;;;;;7.37;3.77;;;;;;;6.48;100.00;99494.63;5074813;28;20208;-76
2023/01/03 09:15:02;;;;;;;4.40;3.80;;;;;;;6.50;100.00;99492.81;5074733;28;20248;-76
2023/01/03 09:17:29;;;;;;;5.80;3.90;;;;;;;6.42;100.00;99492.19;5074501;28;20223;-76
2023/01/03 09:19:55;;;;;;;3.80;3.40;;;;;;;6.38;100.00;99495.84;5073833;28;20227;-76
2023/01/03 09:22:22;;;;;;;3.90;3.40;;;;;;;6.31;100.00;99502.19;5074258;28;20209;-76
2023/01/03 09:24:48;;;;;;;7.70;4.10;;;;;;;6.24;100.00;99498.00;5074664;28;20231;-76
2023/01/03 09:27:16;;;;;;;5.07;3.60;;;;;;;6.24;100.00;99505.88;5074339;28;20227;-75
2023/01/03 09:29:43;;;;;;;4.40;3.80;;;;;;;6.26;100.00;99506.72;5073675;28;20215;-76
2023/01/03 09:32:09;;;;;;;4.67;4.17;;;;;;;6.30;100.00;99524.06;5074245;28;20204;-76
2023/01/03 09:34:36;;;;;;;6.23;4.00;;;;;;;6.24;100.00;99513.75;5074406;28;20254;-76
2023/01/03 09:37:03;;;;;;;4.83;3.53;;;;;;;6.18;100.00;99516.56;5073927;28;20232;-77
2023/01/03 09:39:29;;;;;;;5.30;3.53;;;;;;;6.17;100.00;99520.09;5073446;28;20766;-79
2023/01/03 09:44:41;;;;;;;5.03;4.10;;;;;;;6.31;100.00;99523.19;5074357;28;20203;-75
2023/01/03 09:47:18;;;;;;;4.20;3.80;;;;;;;6.29;100.00;99518.88;5074030;28;20236;-75
2023/01/03 09:49:45;;;;;;;5.13;3.93;;;;;;;6.31;100.00;99522.31;5073403;28;20660;-75
2023/01/03 10:03:46;;;;;;;3.73;3.10;;;;;;;6.17;100.00;99535.00;5073964;28;20730;-77
2023/01/03 10:06:30;;;;;;;4.77;3.80;;;;;;;6.11;100.00;99530.78;5073767;28;20219;-78
2023/01/03 10:09:10;;;;;;;4.30;3.90;;;;;;;6.09;100.00;99532.59;5073236;28;20201;-78
2023/01/03 10:11:47;;;;;;;5.10;3.83;;;;;;;6.10;100.00;99534.31;5073413;28;20226;-78
2023/01/03 10:14:24;;;;;;;6.10;4.07;;;;;;;6.14;100.00;99535.06;5072592;28;20207;-78
2023/01/03 10:17:01;;;;;;;4.83;4.10;;;;;;;6.12;100.00;99529.03;5073816;28;20238;-78
2023/01/03 10:19:58;;;;;;;4.73;3.70;;;;;;;6.03;100.00;99527.53;5072925;28;20581;-79
2023/01/03 10:22:27;;;;;;;4.70;3.87;;;;;;;6.05;100.00;99536.19;5056475;28;20215;-79
2023/01/03 10:24:59;;;;;;;5.50;4.23;;;;;;;6.03;100.00;99538.03;5073379;28;20219;-78
2023/01/03 10:27:29;;;;;;;5.07;4.47;;;;;;;6.03;100.00;99540.66;5073486;28;20248;-77
2023/01/03 10:29:59;;;;;;;4.63;4.13;;;;;;;5.97;100.00;99537.31;5072507;28;20215;-79
2023/01/03 10:32:49;;;;;;;7.57;4.93;;;;;;;5.99;100.00;99541.63;5073426;28;20215;-76
2023/01/03 10:35:19;;;;;;;5.73;4.97;;;;;;;5.97;100.00;99534.69;5073155;28;20271;-76
2023/01/03 10:37:46;;;;;;;5.70;4.53;;;;;;;5.97;100.00;99532.94;5073277;28;20244;-76
2023/01/03 10:40:13;;;;;;;5.90;5.30;;;;;;;5.99;100.00;99531.13;5072439;28;20732;-76
2023/01/03 10:42:41;;;;;;;6.27;5.20;;;;;;;5.98;100.00;99542.53;5073085;28;20218;-78
2023/01/03 10:45:12;;;;;;;6.17;5.30;;;;;;;6.04;100.00;99529.22;5073095;28;20211;-77
2023/01/03 10:47:41;;;;;;;7.27;6.57;;;;;;;6.28;100.00;99525.88;5072934;28;20233;-81
2023/01/03 10:50:19;;;;;;;6.73;5.50;;;;;;;6.37;100.00;99516.88;5072586;28;20201;-80
2023/01/03 10:52:47;;;;;;;9.33;7.10;;;;;;;6.44;100.00;99516.66;5072842;28;20241;-78
2023/01/03 10:55:16;;;;;;;7.83;6.30;;;;;;;6.49;100.00;99503.38;5073159;28;20591;-78
2023/01/03 10:57:47;;;;;;;8.27;6.13;;;;;;;6.51;100.00;99510.28;5072647;28;20720;-79
2023/01/03 11:00:29;;;;;;;6.83;6.03;;;;;;;6.56;100.00;99497.00;5072150;28;20259;-81
2023/01/03 11:03:09;;;;;;;8.30;5.83;;;;;;;6.62;100.00;99495.06;5072700;28;20296;-80
2023/01/03 11:05:37;;;;;;;8.57;6.90;;;;;;;6.73;100.00;99494.72;5072631;28;20219;-81
2023/01/03 11:08:06;;;;;;;7.50;6.20;;;;;;;6.81;100.00;99496.19;5072358;28;20241;-81
2023/01/03 11:10:39;;;;;;;8.90;6.40;;;;;;;6.87;100.00;99501.25;5071882;28;20285;-81
2023/01/03 11:13:21;;;;;;;6.97;5.83;;;;;;;7.01;100.00;99488.50;5072760;28;20536;-82
2023/01/03 11:15:53;;;;;;;6.77;6.00;;;;;;;7.09;100.00;99494.34;5072845;28;20222;-83
2023/01/03 11:18:21;;;;;;;8.57;5.73;;;;;;;7.16;100.00;99485.38;5072315;28;20616;-82
2023/01/03 11:20:54;;;;;;;5.70;5.10;;;;;;;7.24;100.00;99488.56;5071555;28;20602;-82
2023/01/03 11:23:31;;;;;;;9.13;5.40;;;;;;;7.42;100.00;99487.94;5073559;28;20197;-82
2023/01/03 11:26:07;;;;;;;5.03;4.13;;;;;;;7.49;100.00;99484.16;5072413;28;20202;-82
2023/01/03 11:29:00;;;;;;;3.63;3.33;;;;;;;7.43;100.00;99473.88;5072179;28;20599;-84
2023/01/03 11:31:38;;;;;;;5.03;3.00;;;;;;;7.38;100.00;99481.06;5072115;28;20208;-82
2023/01/03 11:34:24;;;;;;;4.17;2.13;;;;;;;7.38;100.00;99481.94;5073367;28;20672;-81
2023/01/03 11:37:00;;;;;;;4.30;2.67;;;;;;;7.42;100.00;99483.53;5072878;28;20640;-84
2023/01/03 11:39:37;;;;;;;7.60;4.20;;;;;;;7.50;100.00;99472.72;5071972;28;20223;-83
2023/01/03 11:42:20;;;;;;;5.63;4.43;;;;;;;7.55;100.00;99473.44;5072454;28;20308;-86
2023/01/03 11:45:07;;;;;;;4.07;3.63;;;;;;;7.60;100.00;99468.88;5072597;28;20205;-86
2023/01/03 11:47:46;;;;;;;4.60;4.10;;;;;;;7.62;100.00;99461.78;5072408;28;20600;-87
2023/01/03 11:50:27;;;;;;;5.30;3.87;;;;;;;7.65;100.00;99462.50;5071241;28;20221;-86
2023/01/03 11:53:00;;;;;;;4.27;3.33;;;;;;;7.64;100.00;99458.16;5072016;28;20582;-84
2023/01/03 11:55:54;;;;;;;4.13;3.43;;;;;;;7.68;100.00;99458.91;5072301;28;20269;-84
2023/01/03 11:58:53;;;;;;;4.07;3.67;;;;;;;7.71;100.00;99454.38;5071843;28;20229;-80
2023/01/03 12:01:41;;;;;;;5.50;3.40;;;;;;;7.82;100.00;99435.56;5071516;28;20214;-80
2023/01/03 12:04:24;;;;;;;5.07;2.90;;;;;;;7.84;100.00;99429.31;5071887;28;20213;-82
2023/01/03 12:09:33;;;;;;;3.70;3.03;;;;;;;7.91;100.00;99414.16;4801372;26;20310;-77
2023/01/03 12:12:13;;;;;;;2.87;2.57;;;;;;;7.93;100.00;99413.19;5031779;28;20216;-80
2023/01/03 12:14:46;;;;;;;4.07;2.60;;;;;;;7.95;100.00;99421.06;5031572;28;20219;-82
2023/01/03 12:17:17;;;;;;;2.63;2.43;;;;;;;7.98;100.00;99415.66;5031373;28;20745;-80
2023/01/03 12:19:51;;;;;;;3.27;2.37;;;;;;;8.15;100.00;99403.53;5030590;28;20237;-81
2023/01/03 12:22:24;;;;;;;3.43;1.90;;;;;;;8.21;100.00;99397.22;5031565;28;20205;-79
2023/01/03 12:24:58;;;;;;;1.63;1.53;;;;;;;8.22;100.00;99393.66;5031680;28;20235;-86
2023/01/03 12:27:30;;;;;;;6.63;2.00;;;;;;;8.25;100.00;99393.53;5031373;28;20239;-82
2023/01/03 12:30:02;;;;;;;2.50;1.90;;;;;;;8.27;100.00;99391.72;5030659;28;20215;-84
2023/01/03 12:32:34;;;;;;;2.10;1.90;;;;;;;8.31;100.00;99377.47;5031686;28;20212;-79
2023/01/03 12:35:20;;;;;;;3.67;2.20;;;;;;;8.32;100.00;99373.94;5031262;28;20209;-80
2023/01/03 12:37:50;;;;;;;3.80;2.00;;;;;;;8.37;100.00;99372.81;5031256;28;20230;-83
2023/01/03 12:40:24;;;;;;;2.03;1.87;;;;;;;8.33;100.00;99381.75;5030656;28;20240;-84
2023/01/03 12:42:59;;;;;;;2.60;2.13;;;;;;;8.38;100.00;99373.69;5031450;28;20230;-83
2023/01/03 12:45:35;;;;;;;2.90;2.00;;;;;;;8.66;100.00;99374.25;5031242;28;20215;-85
2023/01/03 12:48:08;;;;;;;2.40;2.20;;;;;;;8.69;97.81;99343.34;5029646;28;20237;-85
2023/01/03 12:50:40;;;;;;;1.83;1.60;;;;;;;8.60;98.39;99348.16;5028647;28;20192;-84
2023/01/03 12:53:15;;;;;;;2.57;1.90;;;;;;;8.53;99.63;99366.03;5030404;28;20213;-86
2023/01/03 12:55:56;;;;;;;1.80;1.70;;;;;;;8.49;100.00;99371.44;5029993;28;20234;-86
2023/01/03 12:58:34;;;;;;;2.37;1.77;;;;;;;8.46;100.00;99371.59;5032364;28;20729;-86